createdAt,value
2019-02-25T00:00:36.524Z,56.99
2019-02-25T00:03:05.957Z,57.19
2019-02-25T00:05:35.372Z,57.55
2019-02-25T00:08:04.729Z,57.34
2019-02-25T00:10:34.064Z,57.63
2019-02-25T00:13:03.488Z,56.92
2019-02-25T00:15:32.834Z,57.74
2019-02-25T00:18:02.201Z,56.90
2019-02-25T00:20:31.521Z,56.56
2019-02-25T00:23:00.890Z,56.33
2019-02-25T00:25:30.218Z,59.33
2019-02-25T00:27:59.746Z,59.40
2019-02-25T00:30:29.082Z,60.14
2019-02-25T00:32:58.441Z,59.89
2019-02-25T00:35:27.770Z,58.21
2019-02-25T00:37:57.131Z,59.65
2019-02-25T00:40:27.722Z,59.34
2019-02-25T00:42:57.215Z,58.93
2019-02-25T00:45:26.548Z,58.79
2019-02-25T00:47:55.910Z,58.57
2019-02-25T00:50:25.266Z,58.40
2019-02-25T00:52:54.585Z,58.93
2019-02-25T00:55:23.938Z,58.74
2019-02-25T00:57:53.265Z,58.70
2019-02-25T01:00:23.163Z,58.77
2019-02-25T01:02:52.491Z,59.08
2019-02-25T01:05:21.850Z,58.89
2019-02-25T01:07:51.185Z,58.84
2019-02-25T01:10:20.559Z,58.93
2019-02-25T01:12:49.881Z,60.87
2019-02-25T01:15:19.236Z,59.95
2019-02-25T01:17:48.572Z,61.51
2019-02-25T01:20:18.015Z,60.98
2019-02-25T01:22:47.371Z,60.26
2019-02-25T01:25:17.711Z,61.09
2019-02-25T01:27:47.049Z,60.66
2019-02-25T01:30:19.866Z,61.28
2019-02-25T01:32:49.200Z,60.08
2019-02-25T01:35:28.215Z,61.52
2019-02-25T01:37:57.416Z,60.11
2019-02-25T01:40:26.775Z,59.65
2019-02-25T01:42:56.115Z,61.53
2019-02-25T01:45:25.469Z,61.58
2019-02-25T01:47:54.807Z,61.97
2019-02-25T01:50:24.163Z,63.14
2019-02-25T01:52:53.491Z,61.34
2019-02-25T01:55:22.849Z,60.92
2019-02-25T01:57:52.184Z,62.68
2019-02-25T02:00:21.539Z,62.52
2019-02-25T02:02:50.870Z,60.83
2019-02-25T02:05:20.232Z,63.02
2019-02-25T02:07:49.572Z,63.77
2019-02-25T02:10:18.933Z,61.94
2019-02-25T02:12:48.264Z,62.05
2019-02-25T02:15:19.630Z,61.94
2019-02-25T02:17:48.967Z,61.49
2019-02-25T02:20:18.498Z,62.29
2019-02-25T02:22:47.838Z,62.10
2019-02-25T02:25:17.185Z,61.73
2019-02-25T02:27:46.516Z,61.71
2019-02-25T02:30:20.675Z,62.03
2019-02-25T02:32:49.994Z,61.83
2019-02-25T02:35:19.352Z,61.31
2019-02-25T02:37:48.688Z,61.41
2019-02-25T02:40:18.059Z,60.92
2019-02-25T02:43:00.392Z,61.62
2019-02-25T02:45:42.227Z,61.21
2019-02-25T02:48:18.145Z,64.19
2019-02-25T02:50:47.514Z,61.88
2019-02-25T02:53:16.850Z,63.93
2019-02-25T02:55:46.205Z,62.93
2019-02-25T02:58:15.532Z,63.35
2019-02-25T03:00:44.901Z,62.82
2019-02-25T03:03:14.513Z,63.97
2019-02-25T03:05:43.877Z,64.94
2019-02-25T03:08:13.215Z,65.32
2019-02-25T03:10:42.703Z,64.71
2019-02-25T03:13:12.039Z,66.59
2019-02-25T03:15:41.395Z,66.36
2019-02-25T03:18:10.737Z,65.14
2019-02-25T03:20:40.118Z,65.48
2019-02-25T03:23:09.462Z,64.14
2019-02-25T03:25:38.809Z,66.28
2019-02-25T03:28:08.180Z,66.62
2019-02-25T03:30:37.516Z,66.42
2019-02-25T03:33:06.882Z,66.77
2019-02-25T03:35:36.210Z,66.75
2019-02-25T03:38:05.576Z,65.74
2019-02-25T03:40:34.903Z,66.00
2019-02-25T03:43:04.336Z,66.43
2019-02-25T03:45:33.648Z,66.18
2019-02-25T03:48:03.009Z,64.43
2019-02-25T03:50:32.342Z,64.17
2019-02-25T03:53:01.701Z,64.67
2019-02-25T03:55:31.031Z,65.18
2019-02-25T03:58:00.395Z,64.90
2019-02-25T04:00:29.731Z,65.71
2019-02-25T04:02:59.094Z,65.14
2019-02-25T04:05:28.432Z,66.87
2019-02-25T04:07:57.776Z,67.52
2019-02-25T04:10:27.121Z,66.71
2019-02-25T04:12:56.478Z,66.43
2019-02-25T04:15:30.490Z,66.44
2019-02-25T04:17:59.852Z,66.05
2019-02-25T04:20:29.183Z,66.25
2019-02-25T04:22:58.540Z,66.38
2019-02-25T04:25:27.863Z,66.91
2019-02-25T04:27:57.226Z,66.71
2019-02-25T04:30:26.560Z,67.75
2019-02-25T04:32:55.927Z,66.91
2019-02-25T04:35:25.251Z,66.99
2019-02-25T04:37:54.627Z,66.95
2019-02-25T04:40:23.971Z,66.68
2019-02-25T04:42:53.321Z,67.10
2019-02-25T04:45:22.677Z,66.79
2019-02-25T04:47:52.120Z,66.77
2019-02-25T04:50:21.424Z,66.79
2019-02-25T04:52:50.787Z,67.10
2019-02-25T04:55:20.115Z,68.30
2019-02-25T04:57:49.486Z,67.80
2019-02-25T05:00:21.677Z,68.58
2019-02-25T05:02:51.040Z,68.26
2019-02-25T05:05:20.370Z,69.13
2019-02-25T05:07:49.833Z,68.60
2019-02-25T05:10:19.177Z,68.25
2019-02-25T05:13:04.989Z,68.88
2019-02-25T05:15:35.606Z,67.64
2019-02-25T05:18:04.976Z,67.57
2019-02-25T05:20:34.317Z,68.11
2019-02-25T05:23:03.684Z,68.18
2019-02-25T05:25:33.033Z,68.05
2019-02-25T05:28:02.370Z,67.77
2019-02-25T05:30:31.703Z,68.11
2019-02-25T05:33:01.065Z,68.54
2019-02-25T05:35:30.406Z,67.77
2019-02-25T05:37:59.756Z,68.29
2019-02-25T05:40:29.091Z,68.50
2019-02-25T05:42:58.462Z,68.74
2019-02-25T05:45:27.785Z,67.67
2019-02-25T05:47:57.163Z,67.34
2019-02-25T05:50:26.503Z,67.21
2019-02-25T05:52:55.867Z,67.29
2019-02-25T05:55:25.203Z,67.18
2019-02-25T05:57:54.551Z,67.49
2019-02-25T06:00:25.780Z,67.85
2019-02-25T06:02:55.263Z,68.65
2019-02-25T06:05:24.598Z,68.25
2019-02-25T06:07:54.099Z,68.40
2019-02-25T06:10:23.489Z,67.79
2019-02-25T06:12:52.847Z,67.37
2019-02-25T06:15:22.177Z,67.16
2019-02-25T06:17:51.542Z,66.75
2019-02-25T06:20:20.878Z,66.49
2019-02-25T06:22:50.264Z,66.16
2019-02-25T06:25:19.606Z,65.85
2019-02-25T06:27:48.952Z,65.84
2019-02-25T06:30:24.446Z,65.73
2019-02-25T06:32:53.831Z,65.49
2019-02-25T06:35:23.169Z,65.61
2019-02-25T06:37:52.558Z,65.42
2019-02-25T06:40:22.080Z,65.48
2019-02-25T06:42:51.415Z,65.39
2019-02-25T06:45:25.922Z,65.33
2019-02-25T06:47:55.258Z,65.45
2019-02-25T06:50:24.654Z,65.57
2019-02-25T06:52:53.978Z,65.63
2019-02-25T06:55:23.334Z,65.51
2019-02-25T06:57:52.665Z,65.12
2019-02-25T07:00:24.682Z,65.08
2019-02-25T07:02:54.080Z,65.13
2019-02-25T07:05:41.033Z,64.78
2019-02-25T07:08:14.722Z,65.04
2019-02-25T07:10:54.865Z,64.97
2019-02-25T07:13:25.880Z,65.16
2019-02-25T07:15:56.850Z,64.82
2019-02-25T07:18:39.547Z,65.09
2019-02-25T07:21:10.520Z,64.67
2019-02-25T07:23:41.516Z,64.12
2019-02-25T07:26:15.266Z,63.84
2019-02-25T07:29:03.499Z,63.87
2019-02-25T07:31:34.575Z,64.03
2019-02-25T07:34:17.491Z,63.87
2019-02-25T07:36:57.471Z,63.50
2019-02-25T07:39:46.071Z,63.12
2019-02-25T07:42:31.882Z,63.10
2019-02-25T07:45:17.658Z,62.51
2019-02-25T07:47:51.666Z,62.10
2019-02-25T07:50:28.173Z,61.90
2019-02-25T07:53:11.228Z,62.06
2019-02-25T07:56:02.304Z,61.46
2019-02-25T07:58:39.636Z,61.24
2019-02-25T08:01:16.603Z,60.94
2019-02-25T08:03:56.537Z,60.96
2019-02-25T08:06:30.253Z,60.69
2019-02-25T08:09:07.121Z,60.49
2019-02-25T08:11:38.120Z,60.08
2019-02-25T08:14:18.089Z,60.05
2019-02-25T08:16:53.377Z,59.84
2019-02-25T08:19:27.281Z,59.74
2019-02-25T08:22:14.257Z,59.97
2019-02-25T08:24:50.986Z,59.75
2019-02-25T08:27:30.962Z,59.81
2019-02-25T08:30:10.974Z,59.99
2019-02-25T08:32:42.148Z,60.05
2019-02-25T08:35:25.254Z,59.88
2019-02-25T08:37:57.935Z,59.92
2019-02-25T08:40:52.865Z,60.08
2019-02-25T08:43:29.758Z,60.01
2019-02-25T08:46:15.461Z,58.57
2019-02-25T08:48:55.201Z,58.17
2019-02-25T08:51:24.591Z,57.98
2019-02-25T08:53:53.910Z,57.52
2019-02-25T08:56:23.254Z,57.61
2019-02-25T08:58:52.603Z,57.55
2019-02-25T09:01:21.942Z,57.32
2019-02-25T09:03:51.310Z,56.60
2019-02-25T09:06:20.651Z,55.67
2019-02-25T09:08:50.007Z,54.07
2019-02-25T09:11:19.339Z,53.71
2019-02-25T09:13:48.706Z,51.58
2019-02-25T09:16:18.402Z,50.79
2019-02-25T09:18:47.763Z,48.65
2019-02-25T09:21:17.108Z,48.28
2019-02-25T09:23:46.478Z,47.11
2019-02-25T09:26:15.805Z,50.03
2019-02-25T09:28:45.196Z,49.54
2019-02-25T09:31:14.556Z,48.88
2019-02-25T09:33:44.421Z,48.54
2019-02-25T09:36:13.790Z,48.82
2019-02-25T09:38:43.135Z,48.98
2019-02-25T09:41:12.517Z,48.64
2019-02-25T09:43:41.861Z,49.69
2019-02-25T09:46:11.226Z,49.68
2019-02-25T09:48:40.575Z,48.78
2019-02-25T09:51:11.339Z,48.01
2019-02-25T09:53:40.764Z,48.98
2019-02-25T09:56:10.146Z,48.79
2019-02-25T09:58:39.503Z,47.26
2019-02-25T10:01:08.875Z,47.07
2019-02-25T10:03:38.600Z,48.19
2019-02-25T10:06:07.980Z,45.59
2019-02-25T10:08:37.324Z,43.08
2019-02-25T10:11:06.708Z,43.64
2019-02-25T10:13:36.050Z,41.80
2019-02-25T10:16:05.421Z,39.37
2019-02-25T10:18:36.318Z,41.32
2019-02-25T10:21:05.706Z,41.90
2019-02-25T10:23:35.045Z,40.93
2019-02-25T10:26:05.786Z,42.99
2019-02-25T10:28:36.778Z,45.31
2019-02-25T10:31:06.143Z,45.93
2019-02-25T10:33:35.490Z,46.25
2019-02-25T10:36:04.874Z,47.29
2019-02-25T10:38:34.223Z,47.58
2019-02-25T10:41:03.595Z,47.69
2019-02-25T10:43:34.559Z,48.20
2019-02-25T10:46:04.019Z,49.06
2019-02-25T10:48:33.364Z,49.38
2019-02-25T10:51:04.755Z,49.90
2019-02-25T10:53:33.764Z,48.63
2019-02-25T10:56:06.396Z,47.45
2019-02-25T10:58:36.071Z,45.65
2019-02-25T11:01:08.445Z,45.01
2019-02-25T11:03:36.746Z,43.54
2019-02-25T11:06:06.119Z,43.63
2019-02-25T11:08:37.242Z,42.60
2019-02-25T11:11:14.065Z,41.55
2019-02-25T11:13:43.868Z,41.71
2019-02-25T11:16:14.020Z,42.93
2019-02-25T11:18:55.024Z,42.37
2019-02-25T11:21:24.634Z,43.01
2019-02-25T11:23:53.973Z,40.83
2019-02-25T11:26:24.300Z,40.47
2019-02-25T11:28:54.608Z,41.29
2019-02-25T11:31:26.312Z,41.18
2019-02-25T11:33:56.440Z,41.04
2019-02-25T11:36:26.515Z,40.61
2019-02-25T11:38:57.827Z,38.18
2019-02-25T11:41:27.545Z,36.78
2019-02-25T11:43:56.894Z,37.16
2019-02-25T11:46:26.271Z,36.17
2019-02-25T11:48:55.622Z,36.15
2019-02-25T11:51:24.999Z,35.93
2019-02-25T11:53:55.977Z,34.29
2019-02-25T11:56:25.345Z,32.76
2019-02-25T11:58:54.925Z,32.38
2019-02-25T12:01:24.296Z,31.33
2019-02-25T12:03:53.642Z,28.09
2019-02-25T12:06:23.024Z,27.86
2019-02-25T12:08:52.371Z,28.59
2019-02-25T12:11:21.719Z,29.18
2019-02-25T12:13:51.097Z,26.94
2019-02-25T12:16:21.774Z,27.54
2019-02-25T12:18:58.453Z,29.15
2019-02-25T12:21:27.819Z,28.56
2019-02-25T12:23:57.164Z,28.74
2019-02-25T12:26:26.527Z,28.08
2019-02-25T12:28:55.926Z,28.02
2019-02-25T12:31:25.266Z,28.00
2019-02-25T12:33:54.638Z,27.51
2019-02-25T12:36:23.998Z,26.84
2019-02-25T12:38:53.581Z,27.34
2019-02-25T12:41:22.937Z,27.63
2019-02-25T12:43:53.287Z,28.17
2019-02-25T12:46:22.651Z,28.40
2019-02-25T12:48:53.428Z,26.66
2019-02-25T12:51:22.776Z,25.73
2019-02-25T12:53:55.250Z,25.42
2019-02-25T12:56:24.599Z,24.86
2019-02-25T12:58:53.978Z,24.92
2019-02-25T13:01:26.333Z,24.98
2019-02-25T13:03:55.701Z,22.74
2019-02-25T13:06:25.044Z,22.53
2019-02-25T13:08:54.416Z,23.04
2019-02-25T13:11:24.785Z,23.17
2019-02-25T13:13:54.149Z,23.36
2019-02-25T13:16:23.656Z,23.76
2019-02-25T13:18:57.161Z,23.65
2019-02-25T13:21:26.498Z,23.40
2019-02-25T13:23:59.457Z,23.49
2019-02-25T13:26:29.272Z,22.34
2019-02-25T13:28:59.645Z,21.17
2019-02-25T13:31:29.010Z,21.48
2019-02-25T13:33:58.382Z,21.29
2019-02-25T13:36:27.715Z,21.04
2019-02-25T13:38:57.660Z,21.93
2019-02-25T13:41:27.958Z,22.54
2019-02-25T13:43:57.336Z,22.05
2019-02-25T13:46:27.859Z,22.17
2019-02-25T13:48:57.566Z,22.39
2019-02-25T13:51:27.292Z,22.39
2019-02-25T13:53:56.672Z,23.99
2019-02-25T13:56:28.862Z,23.55
2019-02-25T13:58:58.823Z,24.53
2019-02-25T14:01:29.056Z,23.10
2019-02-25T14:03:58.699Z,23.75
2019-02-25T14:06:28.504Z,23.83
2019-02-25T14:08:58.753Z,24.64
2019-02-25T14:11:28.670Z,26.18
2019-02-25T14:13:58.037Z,27.03
2019-02-25T14:16:30.254Z,27.90
2019-02-25T14:18:59.743Z,28.66
2019-02-25T14:21:29.102Z,30.20
2019-02-25T14:23:59.787Z,28.87
2019-02-25T14:26:29.323Z,29.29
2019-02-25T14:28:58.682Z,30.08
2019-02-25T14:31:29.934Z,29.86
2019-02-25T14:33:59.152Z,30.35
2019-02-25T14:36:28.513Z,29.44
2019-02-25T14:38:59.458Z,28.51
2019-02-25T14:41:29.075Z,26.24
2019-02-25T14:44:00.630Z,25.30
2019-02-25T14:46:30.528Z,24.77
2019-02-25T14:48:59.888Z,24.06
2019-02-25T14:51:29.218Z,24.84
2019-02-25T14:53:58.584Z,25.11
2019-02-25T14:56:27.920Z,25.49
2019-02-25T14:58:57.286Z,27.18
2019-02-25T15:01:27.660Z,25.80
2019-02-25T15:03:58.166Z,27.65
2019-02-25T15:06:30.282Z,27.68
2019-02-25T15:09:01.795Z,27.67
2019-02-25T15:11:30.857Z,28.58
2019-02-25T15:14:00.234Z,29.09
2019-02-25T15:16:29.683Z,29.87
2019-02-25T15:19:00.585Z,29.74
2019-02-25T15:21:30.298Z,30.33
2019-02-25T15:24:02.305Z,30.32
2019-02-25T15:26:31.204Z,30.96
2019-02-25T15:29:02.915Z,31.34
2019-02-25T15:31:33.771Z,31.20
2019-02-25T15:34:03.263Z,31.63
2019-02-25T15:36:33.523Z,32.28
2019-02-25T15:39:03.403Z,32.76
2019-02-25T15:41:33.276Z,33.21
2019-02-25T15:44:04.714Z,33.62
2019-02-25T15:46:33.858Z,33.73
2019-02-25T15:49:04.569Z,33.99
2019-02-25T15:51:35.106Z,34.73
2019-02-25T15:54:05.003Z,34.64
2019-02-25T15:56:34.385Z,35.08
2019-02-25T15:59:06.975Z,35.38
2019-02-25T16:01:36.351Z,36.52
2019-02-25T16:04:09.235Z,37.37
2019-02-25T16:06:39.838Z,36.24
2019-02-25T16:09:09.202Z,36.17
2019-02-25T16:11:41.434Z,36.46
2019-02-25T16:14:10.970Z,37.01
2019-02-25T16:16:41.450Z,37.47
2019-02-25T16:19:10.895Z,38.19
2019-02-25T16:21:40.997Z,38.25
2019-02-25T16:24:13.631Z,38.75
2019-02-25T16:26:42.784Z,39.14
2019-02-25T16:29:13.451Z,39.49
2019-02-25T16:31:43.137Z,39.47
2019-02-25T16:34:14.181Z,40.59
2019-02-25T16:36:45.192Z,40.48
2019-02-25T16:39:15.169Z,40.34
2019-02-25T16:41:45.667Z,41.38
2019-02-25T16:44:15.669Z,40.95
2019-02-25T16:46:46.750Z,41.21
2019-02-25T16:49:16.408Z,41.53
2019-02-25T16:51:46.267Z,41.83
2019-02-25T16:54:21.159Z,42.41
2019-02-25T16:56:52.267Z,42.77
2019-02-25T16:59:23.041Z,43.06
2019-02-25T17:01:55.798Z,43.18
2019-02-25T17:04:25.479Z,43.46
2019-02-25T17:06:55.702Z,44.09
2019-02-25T17:09:27.698Z,44.50
2019-02-25T17:11:58.134Z,45.04
2019-02-25T17:14:28.293Z,45.64
2019-02-25T17:16:57.661Z,46.14
2019-02-25T17:19:28.330Z,46.41
2019-02-25T17:21:58.278Z,46.57
2019-02-25T17:24:28.180Z,47.15
2019-02-25T17:27:00.018Z,47.38
2019-02-25T17:29:31.882Z,47.59
2019-02-25T17:32:01.945Z,47.59
2019-02-25T17:34:34.467Z,47.78
2019-02-25T17:37:05.939Z,47.69
2019-02-25T17:39:37.715Z,47.88
2019-02-25T17:42:08.183Z,48.14
2019-02-25T17:44:38.709Z,48.50
2019-02-25T17:47:08.858Z,48.67
2019-02-25T17:49:42.867Z,48.80
2019-02-25T17:52:16.300Z,49.08
2019-02-25T17:54:49.831Z,49.50
2019-02-25T17:57:19.898Z,49.51
2019-02-25T17:59:50.542Z,50.26
2019-02-25T18:02:20.307Z,50.03
2019-02-25T18:04:53.279Z,50.40
2019-02-25T18:07:22.992Z,50.69
2019-02-25T18:09:52.891Z,50.85
2019-02-25T18:12:29.442Z,50.96
2019-02-25T18:14:58.987Z,51.17
2019-02-25T18:17:29.709Z,51.46
2019-02-25T18:19:59.653Z,51.34
2019-02-25T18:22:33.053Z,51.68
2019-02-25T18:25:04.260Z,51.81
2019-02-25T18:27:35.177Z,52.01
2019-02-25T18:30:12.912Z,52.00
2019-02-25T18:32:42.552Z,52.68
2019-02-25T18:35:12.317Z,52.70
2019-02-25T18:37:43.524Z,52.85
2019-02-25T18:40:16.174Z,53.68
2019-02-25T18:42:47.171Z,54.57
2019-02-25T18:45:18.453Z,54.76
2019-02-25T18:47:49.520Z,55.45
2019-02-25T18:50:26.855Z,55.70
2019-02-25T18:52:57.369Z,55.78
2019-02-25T18:55:29.340Z,55.80
2019-02-25T18:57:59.250Z,56.45
2019-02-25T19:00:35.398Z,57.02
2019-02-25T19:03:05.506Z,57.57
2019-02-25T19:05:34.951Z,57.83
2019-02-25T19:08:09.698Z,58.24
2019-02-25T19:10:41.641Z,58.51
2019-02-25T19:13:10.806Z,58.85
2019-02-25T19:15:40.170Z,58.94
2019-02-25T19:18:11.077Z,59.07
2019-02-25T19:20:41.046Z,59.12
2019-02-25T19:23:11.727Z,59.37
2019-02-25T19:25:41.727Z,59.61
2019-02-25T19:28:13.970Z,59.96
2019-02-25T19:30:42.302Z,60.22
2019-02-25T19:33:11.769Z,60.62
2019-02-25T19:35:41.303Z,61.19
2019-02-25T19:38:12.774Z,61.66
2019-02-25T19:40:43.251Z,61.95
2019-02-25T19:43:12.941Z,62.76
2019-02-25T19:48:12.895Z,64.06
2019-02-25T19:50:50.581Z,64.52
2019-02-25T19:53:15.226Z,65.26
2019-02-25T19:55:46.284Z,65.84
2019-02-25T19:58:15.768Z,65.84
2019-02-25T20:00:45.492Z,66.16
2019-02-25T20:03:15.379Z,66.62
2019-02-25T20:05:46.347Z,66.87
2019-02-25T20:08:16.337Z,67.13
2019-02-25T20:10:45.941Z,67.02
2019-02-25T20:13:15.441Z,67.64
2019-02-25T20:15:46.635Z,68.13
2019-02-25T20:18:18.395Z,68.29
2019-02-25T20:20:48.123Z,68.50
2019-02-25T20:23:20.215Z,68.79
2019-02-25T20:25:51.144Z,68.97
2019-02-25T20:28:22.431Z,68.84
2019-02-25T20:30:53.809Z,68.97
2019-02-25T20:33:29.328Z,69.00
2019-02-25T20:35:56.051Z,69.30
2019-02-25T20:38:27.069Z,69.01
2019-02-25T20:40:57.875Z,69.22
2019-02-25T20:43:30.828Z,69.07
2019-02-25T20:46:02.906Z,68.86
2019-02-25T20:48:33.168Z,68.94
2019-02-25T20:51:04.233Z,68.93
2019-02-25T20:53:37.620Z,68.74
2019-02-25T20:56:06.508Z,68.81
2019-02-25T20:58:37.802Z,68.82
2019-02-25T21:01:09.170Z,68.68
2019-02-25T21:03:41.550Z,68.58
2019-02-25T21:06:12.147Z,68.45
2019-02-25T21:08:42.420Z,68.38
2019-02-25T21:11:15.780Z,68.23
2019-02-25T21:13:45.145Z,68.16
2019-02-25T21:16:16.222Z,67.96
2019-02-25T21:18:46.642Z,67.92
2019-02-25T21:21:18.417Z,67.73
2019-02-25T21:23:47.852Z,67.59
2019-02-25T21:26:17.210Z,67.49
2019-02-25T21:28:46.539Z,67.28
2019-02-25T21:31:17.337Z,67.24
2019-02-25T21:33:49.798Z,67.11
2019-02-25T21:36:17.996Z,67.39
2019-02-25T21:38:49.505Z,67.14
2019-02-25T21:41:18.806Z,67.03
2019-02-25T21:43:49.429Z,67.52
2019-02-25T21:46:21.913Z,67.40
2019-02-25T21:48:53.019Z,67.12
2019-02-25T21:51:21.738Z,67.07
2019-02-25T21:53:53.671Z,66.99
2019-02-25T21:56:23.262Z,66.90
2019-02-25T21:58:53.214Z,66.79
2019-02-25T22:01:22.553Z,66.82
2019-02-25T22:03:52.549Z,66.64
2019-02-25T22:06:24.940Z,66.70
2019-02-25T22:08:55.958Z,66.62
2019-02-25T22:11:25.054Z,66.63
2019-02-25T22:13:54.380Z,66.58
2019-02-25T22:16:25.594Z,66.69
2019-02-25T22:18:56.455Z,66.63
2019-02-25T22:21:25.836Z,66.62
2019-02-25T22:23:57.633Z,66.64
2019-02-25T22:26:29.041Z,66.62
2019-02-25T22:28:59.662Z,66.69
2019-02-25T22:31:28.971Z,66.69
2019-02-25T22:33:58.327Z,66.76
2019-02-25T22:36:27.647Z,66.69
2019-02-25T22:38:58.922Z,66.67
2019-02-25T22:41:28.056Z,66.73
2019-02-25T22:43:57.435Z,66.70
2019-02-25T22:46:29.912Z,66.77
2019-02-25T22:48:59.328Z,66.78
2019-02-25T22:51:30.771Z,66.93
2019-02-25T22:53:59.955Z,66.94
2019-02-25T22:56:29.293Z,66.93
2019-02-25T22:59:00.408Z,66.95
2019-02-25T23:01:29.710Z,67.01
2019-02-25T23:03:59.084Z,67.13
2019-02-25T23:06:28.419Z,67.06
2019-02-25T23:08:57.795Z,67.14
2019-02-25T23:11:27.140Z,67.29
2019-02-25T23:13:56.518Z,67.19
2019-02-25T23:16:25.865Z,67.18
2019-02-25T23:18:55.238Z,66.97
2019-02-25T23:21:26.537Z,67.23
2019-02-25T23:23:58.091Z,67.38
2019-02-25T23:26:26.927Z,67.36
2019-02-25T23:28:57.673Z,67.45
2019-02-25T23:31:29.770Z,67.40
2019-02-25T23:33:58.429Z,67.62
2019-02-25T23:36:27.782Z,67.81
2019-02-25T23:38:59.443Z,67.94
2019-02-25T23:41:31.924Z,68.13
2019-02-25T23:43:59.329Z,68.42
2019-02-25T23:46:29.868Z,68.50
2019-02-25T23:48:59.744Z,68.85
2019-02-25T23:51:29.083Z,68.75
2019-02-25T23:53:58.447Z,68.94
2019-02-25T23:56:29.515Z,69.09
2019-02-25T23:58:58.869Z,69.27
